Time;durP1;ratioP1;P1;durP2;ratioP2;P2;SDS_P1;SDS_P2;PMS_P1;PMS_P2;Temp;Humidity;BMP_temperature;BMP_pressure;BME280_temperature;BME280_humidity;BME280_pressure;Samples;Min_cycle;Max_cycle;Signal;HPM_P1;HPM_P2
2022/05/09 00:00:00;;;;;;;1999.90;999.90;;;19.00;51.80;;;;;;5029517;28;20096;-75
2022/05/09 00:02:26;;;;;;;1999.90;999.90;;;19.00;52.00;;;;;;5003638;28;20042;-75
2022/05/09 00:04:52;;;;;;;1999.90;999.90;;;18.90;52.00;;;;;;5022409;28;20029;-75
2022/05/09 00:07:19;;;;;;;1999.90;999.90;;;18.90;52.10;;;;;;5029216;28;20033;-75
2022/05/09 00:09:45;;;;;;;1999.90;999.90;;;18.80;52.20;;;;;;5014681;28;20033;-75
2022/05/09 00:12:11;;;;;;;1999.90;999.90;;;18.70;52.20;;;;;;5030570;28;20037;-76
2022/05/09 00:14:38;;;;;;;1999.90;999.90;;;18.70;52.30;;;;;;5027703;28;20422;-75
2022/05/09 00:17:04;;;;;;;1999.90;999.90;;;18.60;52.30;;;;;;5002747;28;20042;-75
2022/05/09 00:19:31;;;;;;;1999.90;999.90;;;18.60;52.40;;;;;;5010597;28;20042;-76
2022/05/09 00:21:57;;;;;;;1999.90;999.90;;;18.60;52.50;;;;;;5021072;28;20037;-76
2022/05/09 00:24:23;;;;;;;1999.90;999.90;;;18.60;52.50;;;;;;5030244;28;20068;-75
2022/05/09 00:26:50;;;;;;;1999.90;999.90;;;18.60;52.50;;;;;;5028459;28;20029;-75
2022/05/09 00:29:17;;;;;;;1999.90;999.90;;;18.50;52.50;;;;;;5030878;28;20041;-75
2022/05/09 00:31:44;;;;;;;1999.90;999.90;;;18.60;52.50;;;;;;5025858;28;20030;-75
2022/05/09 00:34:11;;;;;;;1999.90;999.90;;;18.60;52.60;;;;;;5028434;28;20040;-75
2022/05/09 00:36:38;;;;;;;1999.90;999.90;;;18.60;52.60;;;;;;5029454;28;20025;-75
2022/05/09 00:39:05;;;;;;;1999.90;999.90;;;18.50;52.60;;;;;;5028305;28;20044;-75
2022/05/09 00:41:34;;;;;;;1999.90;999.90;;;18.50;52.70;;;;;;5030575;28;20037;-75
2022/05/09 00:44:09;;;;;;;1999.90;999.90;;;18.50;52.80;;;;;;5028270;28;20037;-75
2022/05/09 00:46:36;;;;;;;1999.90;999.90;;;18.40;52.90;;;;;;5028679;28;20037;-75
2022/05/09 00:49:19;;;;;;;1999.90;999.90;;;18.40;52.90;;;;;;5027708;28;20363;-75
2022/05/09 00:51:48;;;;;;;1999.90;999.90;;;18.40;53.00;;;;;;5028010;28;20410;-75
2022/05/09 00:54:14;;;;;;;1999.90;999.90;;;18.40;53.10;;;;;;5002822;28;20384;-75
2022/05/09 00:56:50;;;;;;;1999.90;999.90;;;18.30;53.10;;;;;;5019204;28;20387;-75
2022/05/09 00:59:17;;;;;;;1999.90;999.90;;;18.30;53.20;;;;;;5023480;28;20025;-75
2022/05/09 01:01:43;;;;;;;1999.90;999.90;;;18.30;53.30;;;;;;5030672;28;20033;-75
2022/05/09 01:04:19;;;;;;;1999.90;999.90;;;18.20;53.40;;;;;;5032719;28;20037;-75
2022/05/09 01:06:45;;;;;;;1999.90;999.90;;;18.20;53.40;;;;;;5026762;28;20050;-75
2022/05/09 01:09:11;;;;;;;1999.90;999.90;;;18.10;53.50;;;;;;5015570;28;20046;-75
2022/05/09 01:11:40;;;;;;;1999.90;999.90;;;18.10;53.60;;;;;;5034645;28;20033;-75
2022/05/09 01:14:31;;;;;;;1999.90;999.90;;;18.00;53.60;;;;;;5032045;28;20025;-75
2022/05/09 01:16:57;;;;;;;1999.90;999.90;;;18.00;54.40;;;;;;5030121;28;20053;-75
2022/05/09 01:19:32;;;;;;;1999.90;999.90;;;18.00;53.70;;;;;;5031910;28;20033;-75
2022/05/09 01:21:58;;;;;;;1999.90;999.90;;;18.00;53.80;;;;;;5032616;28;20028;-75
2022/05/09 01:24:25;;;;;;;1999.90;999.90;;;17.90;53.80;;;;;;5017432;28;20045;-75
2022/05/09 01:26:51;;;;;;;1999.90;999.90;;;17.90;53.90;;;;;;5041996;28;20033;-75
2022/05/09 01:29:17;;;;;;;1999.90;999.90;;;17.90;54.00;;;;;;5027334;28;20042;-75
2022/05/09 01:31:43;;;;;;;1999.90;999.90;;;17.90;54.10;;;;;;5033880;28;20039;-75
2022/05/09 01:34:10;;;;;;;1999.90;999.90;;;17.80;54.10;;;;;;5031302;28;20041;-75
2022/05/09 01:36:36;;;;;;;1999.90;999.90;;;17.80;54.20;;;;;;5032516;28;20029;-75
2022/05/09 01:39:04;;;;;;;1999.90;999.90;;;17.70;54.30;;;;;;5030639;28;20029;-75
2022/05/09 01:41:36;;;;;;;1999.90;999.90;;;17.70;54.90;;;;;;5026009;28;20481;-75
2022/05/09 01:44:02;;;;;;;1999.90;999.90;;;17.70;54.40;;;;;;5032854;28;20469;-75
2022/05/09 01:46:29;;;;;;;1999.90;999.90;;;17.60;54.50;;;;;;5025514;28;20025;-75
2022/05/09 01:51:41;;;;;;;1999.90;999.90;;;17.60;54.60;;;;;;5021035;28;20502;-75
2022/05/09 01:54:07;;;;;;;1999.90;999.90;;;17.50;54.50;;;;;;5030457;28;20603;-75
2022/05/09 01:56:35;;;;;;;1999.90;999.90;;;17.50;54.60;;;;;;5027139;28;20363;-75
2022/05/09 01:59:01;;;;;;;1999.90;999.90;;;17.50;54.80;;;;;;5032295;28;20033;-75
2022/05/09 02:01:29;;;;;;;1999.90;999.90;;;17.40;54.80;;;;;;5029810;28;20029;-75
2022/05/09 02:03:55;;;;;;;1999.90;999.90;;;17.40;55.00;;;;;;5016254;28;20458;-75
2022/05/09 02:06:21;;;;;;;1999.90;999.90;;;17.30;55.00;;;;;;5020774;28;20034;-75
2022/05/09 02:08:48;;;;;;;1999.90;999.90;;;17.20;55.10;;;;;;5026033;28;20045;-76
2022/05/09 02:11:14;;;;;;;1999.90;999.90;;;17.10;55.10;;;;;;5007153;28;20487;-76
2022/05/09 02:13:40;;;;;;;1999.90;999.90;;;17.10;55.30;;;;;;5020398;28;20037;-76
2022/05/09 02:16:06;;;;;;;1999.90;999.90;;;17.00;55.30;;;;;;5028589;28;20048;-76
2022/05/09 02:18:33;;;;;;;1999.90;999.90;;;17.00;55.30;;;;;;5026133;28;20029;-76
2022/05/09 02:20:59;;;;;;;1999.90;999.90;;;17.00;55.40;;;;;;5031331;28;20028;-76
2022/05/09 02:23:25;;;;;;;1999.90;999.90;;;17.00;55.40;;;;;;5028481;28;20402;-76
2022/05/09 02:25:51;;;;;;;1999.90;999.90;;;17.00;55.50;;;;;;5030898;28;20033;-76
2022/05/09 02:28:17;;;;;;;1999.90;999.90;;;17.00;55.50;;;;;;5028856;28;20045;-76
2022/05/09 02:30:43;;;;;;;1999.90;999.90;;;16.90;55.50;;;;;;5029271;28;20033;-76
2022/05/09 02:33:10;;;;;;;1999.90;999.90;;;16.90;55.50;;;;;;5032052;28;20063;-76
2022/05/09 02:35:36;;;;;;;1999.90;999.90;;;17.00;55.60;;;;;;5031669;28;20473;-76
2022/05/09 02:38:03;;;;;;;1999.90;999.90;;;16.90;55.60;;;;;;5031294;28;20176;-75
2022/05/09 02:40:29;;;;;;;1999.90;999.90;;;16.90;55.80;;;;;;5031082;28;20033;-75
2022/05/09 02:42:58;;;;;;;1999.90;999.90;;;16.90;55.80;;;;;;5031364;28;20026;-75
2022/05/09 02:45:24;;;;;;;1999.90;999.90;;;16.90;55.80;;;;;;5023552;28;20037;-75
2022/05/09 02:47:51;;;;;;;1999.90;999.90;;;16.90;55.80;;;;;;5030864;28;20376;-75
2022/05/09 02:50:17;;;;;;;1999.90;999.90;;;16.90;55.80;;;;;;5028018;28;20037;-75
2022/05/09 02:52:43;;;;;;;1999.90;999.90;;;16.90;55.90;;;;;;5023085;28;20034;-75
2022/05/09 02:55:10;;;;;;;1999.90;999.90;;;16.90;56.00;;;;;;5031368;28;20040;-75
2022/05/09 02:57:37;;;;;;;1999.90;999.90;;;16.80;56.00;;;;;;5014352;28;20046;-75
2022/05/09 03:00:05;;;;;;;1999.90;999.90;;;16.80;56.00;;;;;;5031135;28;20037;-76
2022/05/09 03:02:32;;;;;;;1999.90;999.90;;;16.80;56.20;;;;;;5017497;28;20045;-75
2022/05/09 03:04:58;;;;;;;1999.90;999.90;;;16.70;56.10;;;;;;5025348;28;20033;-75
2022/05/09 03:07:24;;;;;;;1999.90;999.90;;;16.70;56.20;;;;;;5029152;28;20482;-75
2022/05/09 03:09:50;;;;;;;1999.90;999.90;;;16.70;56.20;;;;;;5024728;28;20053;-75
2022/05/09 03:12:19;;;;;;;1999.90;999.90;;;16.70;56.30;;;;;;5032577;28;20037;-75
2022/05/09 03:14:46;;;;;;;1999.90;999.90;;;16.60;56.30;;;;;;5031630;28;20041;-75
2022/05/09 03:17:13;;;;;;;1999.90;999.90;;;16.60;56.40;;;;;;5031092;28;20064;-75
2022/05/09 03:19:39;;;;;;;1999.90;999.90;;;16.60;56.50;;;;;;5023622;28;20037;-75
2022/05/09 03:22:05;;;;;;;1999.90;999.90;;;16.60;56.50;;;;;;5031998;28;20029;-75
2022/05/09 03:24:31;;;;;;;1999.90;999.90;;;16.60;56.50;;;;;;5010667;28;20046;-75
2022/05/09 03:26:59;;;;;;;1999.90;999.90;;;16.50;56.50;;;;;;5032433;28;20041;-75
2022/05/09 03:29:26;;;;;;;1999.90;999.90;;;16.50;56.60;;;;;;5027152;28;20060;-75
2022/05/09 03:31:53;;;;;;;1999.90;999.90;;;16.50;56.60;;;;;;5030385;28;20459;-75
2022/05/09 03:34:19;;;;;;;1999.90;999.90;;;16.50;56.70;;;;;;5030887;28;20029;-75
2022/05/09 03:36:45;;;;;;;1999.90;999.90;;;16.50;56.70;;;;;;5030369;28;20029;-75
2022/05/09 03:39:12;;;;;;;1999.90;999.90;;;16.50;56.70;;;;;;5009593;28;20042;-76
2022/05/09 03:41:38;;;;;;;1999.90;999.90;;;16.50;56.70;;;;;;5023918;28;20037;-76
2022/05/09 03:44:05;;;;;;;1999.90;999.90;;;16.50;56.70;;;;;;5031664;28;20021;-75
2022/05/09 03:46:31;;;;;;;1999.90;999.90;;;16.50;56.80;;;;;;5030088;28;20029;-75
2022/05/09 03:48:57;;;;;;;1999.90;999.90;;;16.40;56.80;;;;;;5026587;28;20038;-75
2022/05/09 03:51:23;;;;;;;1999.90;999.90;;;16.40;56.90;;;;;;5023961;28;20030;-75
2022/05/09 03:53:50;;;;;;;1999.90;999.90;;;16.40;57.00;;;;;;5027848;28;20034;-75
2022/05/09 03:56:16;;;;;;;1999.90;999.90;;;16.40;57.10;;;;;;5010925;28;20042;-76
2022/05/09 03:58:42;;;;;;;1999.90;999.90;;;16.30;57.10;;;;;;5027101;28;20044;-76
2022/05/09 04:01:08;;;;;;;1999.90;999.90;;;16.30;57.20;;;;;;5031321;28;20040;-76
2022/05/09 04:03:34;;;;;;;1999.90;999.90;;;16.30;57.20;;;;;;5026425;28;20033;-76
2022/05/09 04:06:01;;;;;;;1999.90;999.90;;;16.30;57.30;;;;;;5029954;28;20378;-76
2022/05/09 04:08:27;;;;;;;1999.90;999.90;;;16.30;57.20;;;;;;5024421;28;20040;-76
2022/05/09 04:10:55;;;;;;;1999.90;999.90;;;16.30;57.30;;;;;;5021885;28;20026;-76
2022/05/09 04:13:21;;;;;;;1999.90;999.90;;;16.20;57.30;;;;;;5019061;28;20036;-76
2022/05/09 04:18:42;;;;;;;1999.90;999.90;;;16.20;57.40;;;;;;5020623;28;20406;-76
2022/05/09 04:21:09;;;;;;;1999.90;999.90;;;16.10;57.50;;;;;;5028317;28;20021;-76
2022/05/09 04:23:35;;;;;;;1999.90;999.90;;;16.10;57.60;;;;;;5004300;28;20038;-76
2022/05/09 04:26:01;;;;;;;1999.90;999.90;;;16.00;57.70;;;;;;5022928;28;20025;-76
2022/05/09 04:28:27;;;;;;;1999.90;999.90;;;16.00;57.70;;;;;;5013332;28;20044;-76
2022/05/09 04:30:54;;;;;;;1999.90;999.90;;;16.00;57.80;;;;;;5028791;28;20046;-76
2022/05/09 04:33:20;;;;;;;1999.90;999.90;;;15.90;57.80;;;;;;5030863;28;20029;-76
2022/05/09 04:35:46;;;;;;;1999.90;999.90;;;15.90;57.90;;;;;;5029948;28;20040;-76
2022/05/09 04:38:18;;;;;;;1999.90;999.90;;;15.90;57.90;;;;;;5031307;28;20038;-76
2022/05/09 04:40:45;;;;;;;1999.90;999.90;;;15.90;58.00;;;;;;5016717;28;20359;-76
2022/05/09 04:43:11;;;;;;;1999.90;999.90;;;15.90;57.90;;;;;;5034887;28;20026;-76
2022/05/09 04:45:37;;;;;;;1999.90;999.90;;;15.90;57.90;;;;;;5001578;28;20486;-76
2022/05/09 04:48:04;;;;;;;1999.90;999.90;;;15.90;57.90;;;;;;5035383;28;20025;-76
2022/05/09 04:50:32;;;;;;;1999.90;999.90;;;15.90;58.00;;;;;;5009284;28;20676;-76
2022/05/09 04:52:58;;;;;;;1999.90;999.90;;;15.90;58.00;;;;;;5026309;28;20030;-76
2022/05/09 04:55:24;;;;;;;1999.90;999.90;;;15.90;58.00;;;;;;5033722;28;20034;-76
2022/05/09 04:57:50;;;;;;;1999.90;999.90;;;15.90;58.00;;;;;;5033509;28;20439;-76
2022/05/09 05:00:18;;;;;;;1999.90;999.90;;;16.00;58.10;;;;;;5033260;28;20378;-76
2022/05/09 05:02:44;;;;;;;1999.90;999.90;;;16.00;58.10;;;;;;5032272;28;20029;-76
2022/05/09 05:05:10;;;;;;;1999.90;999.90;;;16.00;58.00;;;;;;5031527;28;20045;-76
2022/05/09 05:07:36;;;;;;;1999.90;999.90;;;16.00;58.00;;;;;;5034922;28;20037;-76
2022/05/09 05:10:03;;;;;;;1999.90;999.90;;;16.00;58.00;;;;;;5034761;28;20528;-76
2022/05/09 05:12:29;;;;;;;1999.90;999.90;;;16.10;58.10;;;;;;5034054;28;20025;-76
2022/05/09 05:14:55;;;;;;;1999.90;999.90;;;16.10;58.10;;;;;;5017775;28;20033;-76
2022/05/09 05:17:22;;;;;;;1999.90;999.90;;;16.10;58.10;;;;;;5032656;28;20064;-76
2022/05/09 05:19:49;;;;;;;1999.90;999.90;;;16.10;58.10;;;;;;5048830;28;20037;-76
2022/05/09 05:22:15;;;;;;;1999.90;999.90;;;16.10;58.10;;;;;;5033095;28;20405;-76
2022/05/09 05:24:44;;;;;;;1999.90;999.90;;;16.20;58.10;;;;;;5032845;28;20060;-76
2022/05/09 05:27:11;;;;;;;1999.90;999.90;;;16.30;58.00;;;;;;5032584;28;20037;-76
2022/05/09 05:29:37;;;;;;;1999.90;999.90;;;16.40;58.00;;;;;;5023070;28;20042;-76
2022/05/09 05:32:22;;;;;;;1999.90;999.90;;;16.50;57.80;;;;;;5030622;28;20038;-76
2022/05/09 05:34:48;;;;;;;1999.90;999.90;;;16.70;57.60;;;;;;5014693;28;20033;-76
2022/05/09 05:37:16;;;;;;;1999.90;999.90;;;16.90;57.40;;;;;;5019764;28;20030;-76
2022/05/09 05:39:43;;;;;;;1999.90;999.90;;;17.10;57.30;;;;;;5033245;28;20048;-76
2022/05/09 05:42:09;;;;;;;1999.90;999.90;;;17.20;57.10;;;;;;5031775;28;20049;-76
2022/05/09 05:44:37;;;;;;;1999.90;999.90;;;17.30;57.00;;;;;;5007193;28;20040;-76
2022/05/09 05:47:11;;;;;;;1999.90;999.90;;;17.50;56.90;;;;;;5026685;28;20419;-76
2022/05/09 07:16:21;;;;;;;61.38;54.95;;;20.30;55.50;;;;;;5084570;27;20399;-63
2022/05/09 07:18:48;;;;;;;47.63;42.80;;;20.50;55.50;;;;;;5058954;28;20393;-63
2022/05/09 07:29:10;;;;;;;56.97;51.50;;;21.10;55.30;;;;;;5054064;27;20403;-72
2022/05/09 07:39:16;;;;;;;37.08;34.05;;;21.90;51.90;;;;;;5002267;27;20401;-72
2022/05/09 07:43:54;;;;;;;231.00;216.10;;;21.10;55.50;;;;;;5060901;28;20413;-76
2022/05/09 07:46:56;;;;;;;35.45;32.75;;;20.70;56.60;;;;;;5041873;27;20402;-69
2022/05/09 07:52:48;;;;;;;23.73;22.10;;;21.20;63.10;;;;;;5096093;27;20358;-81
2022/05/09 07:55:15;;;;;;;23.55;21.95;;;21.40;64.50;;;;;;5045271;28;20025;-82
2022/05/09 07:57:41;;;;;;;23.95;22.45;;;21.60;66.80;;;;;;5046493;28;20036;-80
2022/05/09 08:00:07;;;;;;;24.35;22.95;;;21.70;67.70;;;;;;5047033;28;20033;-81
2022/05/09 08:02:34;;;;;;;24.15;22.45;;;21.70;68.70;;;;;;5038512;28;20032;-81
2022/05/09 08:05:00;;;;;;;24.60;22.45;;;21.70;67.70;;;;;;5044828;28;20372;-81
2022/05/09 08:07:26;;;;;;;25.08;23.02;;;21.80;68.20;;;;;;5044254;28;20034;-83
2022/05/09 08:09:52;;;;;;;23.65;22.05;;;21.80;68.50;;;;;;5075213;28;20047;-83
2022/05/09 08:12:19;;;;;;;1999.90;999.90;;;21.90;68.80;;;;;;5043706;28;20464;-81
2022/05/09 08:14:45;;;;;;;1999.90;999.90;;;22.10;69.30;;;;;;5038894;28;20040;-81
2022/05/09 08:17:11;;;;;;;1999.90;999.90;;;22.30;69.40;;;;;;5022894;28;20030;-81
2022/05/09 08:19:38;;;;;;;1999.90;999.90;;;22.40;69.00;;;;;;5062939;28;20389;-81
2022/05/09 08:22:07;;;;;;;1999.90;999.90;;;22.60;69.20;;;;;;5040169;28;20041;-81
2022/05/09 08:24:34;;;;;;;1999.90;999.90;;;22.80;69.10;;;;;;5023657;28;20057;-81
2022/05/09 08:27:00;;;;;;;1999.90;999.90;;;23.00;69.00;;;;;;5043253;28;20049;-83
2022/05/09 08:29:26;;;;;;;1999.90;999.90;;;23.20;69.30;;;;;;5041999;28;20389;-81
2022/05/09 08:31:52;;;;;;;1999.90;999.90;;;23.40;68.70;;;;;;5039669;28;20430;-81
2022/05/09 08:34:18;;;;;;;1999.90;999.90;;;23.40;67.90;;;;;;5050613;28;20518;-95
2022/05/09 08:36:53;;;;;;;1999.90;999.90;;;23.60;53.60;;;;;;5026222;28;20042;-87
2022/05/09 08:39:20;;;;;;;1999.90;999.90;;;23.40;52.60;;;;;;5044839;28;20017;-86
2022/05/09 08:42:04;;;;;;;1999.90;999.90;;;23.40;55.10;;;;;;5042286;28;20052;-84
2022/05/09 08:44:51;;;;;;;1999.90;999.90;;;23.80;54.80;;;;;;5041878;28;20513;-84
2022/05/09 08:47:17;;;;;;;1999.90;999.90;;;24.00;52.90;;;;;;5043555;28;20040;-83
2022/05/09 08:49:46;;;;;;;1999.90;999.90;;;24.30;52.50;;;;;;5044728;28;20033;-83
2022/05/09 08:52:25;;;;;;;1999.90;999.90;;;24.50;51.40;;;;;;5024811;28;20197;-83
2022/05/09 08:54:53;;;;;;;1999.90;999.90;;;24.60;51.60;;;;;;5024647;28;20030;-83
2022/05/09 08:57:22;;;;;;;1999.90;999.90;;;24.90;51.50;;;;;;5004326;28;20181;-83
2022/05/09 09:00:00;;;;;;;1999.90;999.90;;;25.10;50.60;;;;;;4992315;28;20471;-83
2022/05/09 09:02:44;;;;;;;1999.90;999.90;;;25.20;50.90;;;;;;5035068;28;20030;-84
2022/05/09 09:05:11;;;;;;;1999.90;999.90;;;25.40;48.90;;;;;;5007102;28;20030;-83
2022/05/09 09:07:59;;;;;;;1999.90;999.90;;;25.00;48.70;;;;;;5002383;28;20034;-83
2022/05/09 09:10:49;;;;;;;1999.90;999.90;;;24.60;50.30;;;;;;5007484;28;20043;-82
2022/05/09 09:13:41;;;;;;;1999.90;999.90;;;24.70;51.70;;;;;;5027369;28;20054;-84
2022/05/09 09:16:12;;;;;;;1999.90;999.90;;;24.90;49.80;;;;;;5003281;28;20494;-85
2022/05/09 09:18:54;;;;;;;1999.90;999.90;;;24.80;50.20;;;;;;4994352;28;20061;-83
2022/05/09 09:21:35;;;;;;;1999.90;999.90;;;24.50;50.90;;;;;;5010995;28;20038;-83
2022/05/09 09:24:37;;;;;;;1999.90;999.90;;;24.50;52.70;;;;;;5010495;28;20030;-83
2022/05/09 09:27:11;;;;;;;1999.90;999.90;;;24.60;51.60;;;;;;5013373;28;20494;-87
2022/05/09 09:29:47;;;;;;;1999.90;999.90;;;24.70;51.60;;;;;;5004741;28;20045;-85
2022/05/09 09:32:18;;;;;;;1999.90;999.90;;;24.90;51.10;;;;;;4990677;28;20061;-85
2022/05/09 09:34:57;;;;;;;1999.90;999.90;;;24.60;50.80;;;;;;5006219;28;20061;-85
2022/05/09 09:37:33;;;;;;;1999.90;999.90;;;24.40;50.10;;;;;;5013680;28;20041;-86
2022/05/09 09:39:59;;;;;;;1999.90;999.90;;;24.40;51.10;;;;;;5013546;28;20033;-82
2022/05/09 09:42:25;;;;;;;1999.90;999.90;;;24.80;50.90;;;;;;4978799;28;20042;-85
2022/05/09 09:44:54;;;;;;;1999.90;999.90;;;25.00;50.00;;;;;;4993918;28;20030;-89
2022/05/09 09:47:21;;;;;;;1999.90;999.90;;;24.60;50.60;;;;;;5008839;28;20044;-85
2022/05/09 09:49:50;;;;;;;1999.90;999.90;;;24.50;51.10;;;;;;5009506;28;20474;-87
2022/05/09 09:52:26;;;;;;;1999.90;999.90;;;24.80;51.20;;;;;;4980961;28;20045;-88
2022/05/09 09:54:59;;;;;;;1999.90;999.90;;;24.90;49.50;;;;;;4992206;28;20418;-85
2022/05/09 09:57:32;;;;;;;1999.90;999.90;;;24.80;49.00;;;;;;4997082;28;20042;-83
2022/05/09 10:00:31;;;;;;;1999.90;999.90;;;24.80;49.80;;;;;;5012850;28;20041;-89
2022/05/09 10:03:15;;;;;;;1999.90;999.90;;;24.90;49.00;;;;;;4971439;28;20033;-82
2022/05/09 10:05:43;;;;;;;1999.90;999.90;;;24.90;49.10;;;;;;4996109;28;20053;-87
2022/05/09 10:08:22;;;;;;;1999.90;999.90;;;25.00;48.70;;;;;;5007857;28;20025;-86
2022/05/09 10:11:08;;;;;;;1999.90;999.90;;;25.40;48.60;;;;;;5011199;28;20041;-86
2022/05/09 10:13:41;;;;;;;1999.90;999.90;;;25.40;46.50;;;;;;5009432;28;20036;-87
2022/05/09 10:16:33;;;;;;;1999.90;999.90;;;25.40;46.50;;;;;;4991738;28;20368;-88
2022/05/09 10:19:07;;;;;;;1999.90;999.90;;;25.40;46.60;;;;;;5008127;28;20042;-86
2022/05/09 10:24:49;;;;;;;1999.90;999.90;;;25.50;45.80;;;;;;5017393;28;20494;-86
2022/05/09 10:27:26;;;;;;;1999.90;999.90;;;25.40;46.20;;;;;;4998098;28;20041;-87
2022/05/09 10:29:56;;;;;;;1999.90;999.90;;;25.30;44.90;;;;;;5009596;28;20045;-87
2022/05/09 10:32:52;;;;;;;1999.90;999.90;;;25.20;44.00;;;;;;5007430;28;20042;-87
2022/05/09 10:35:26;;;;;;;1999.90;999.90;;;25.20;44.60;;;;;;5010061;28;20391;-88
2022/05/09 10:38:13;;;;;;;1999.90;999.90;;;25.20;44.40;;;;;;5007736;28;20037;-85
2022/05/09 10:40:42;;;;;;;1999.90;999.90;;;25.50;44.60;;;;;;5010114;28;20033;-87
2022/05/09 10:43:29;;;;;;;1999.90;999.90;;;25.80;42.00;;;;;;5008602;28;20026;-88
2022/05/09 10:45:55;;;;;;;1999.90;999.90;;;25.80;41.50;;;;;;5022683;28;20487;-90
2022/05/09 10:48:21;;;;;;;1999.90;999.90;;;25.80;43.40;;;;;;5009792;28;20034;-84
2022/05/09 10:51:01;;;;;;;1999.90;999.90;;;26.00;43.10;;;;;;5008034;28;20049;-82
2022/05/09 10:53:46;;;;;;;1999.90;999.90;;;26.30;42.10;;;;;;4998114;28;20041;-84
2022/05/09 10:56:31;;;;;;;1999.90;999.90;;;26.40;41.10;;;;;;4993910;28;20491;-84
2022/05/09 10:59:11;;;;;;;1999.90;999.90;;;26.70;41.50;;;;;;4978029;28;20034;-86
2022/05/09 11:01:56;;;;;;;1999.90;999.90;;;26.50;40.30;;;;;;5008215;28;20045;-84
2022/05/09 11:04:27;;;;;;;1999.90;999.90;;;26.70;42.90;;;;;;4990478;28;20045;-83
2022/05/09 11:06:59;;;;;;;1999.90;999.90;;;26.90;40.80;;;;;;5023104;28;20040;-83
2022/05/09 11:09:30;;;;;;;1999.90;999.90;;;26.60;41.60;;;;;;5012201;28;20021;-83
2022/05/09 11:12:20;;;;;;;1999.90;999.90;;;26.40;42.20;;;;;;5008616;28;20049;-83
2022/05/09 11:14:53;;;;;;;1999.90;999.90;;;26.50;41.80;;;;;;4989619;28;20038;-87
2022/05/09 11:17:48;;;;;;;1999.90;999.90;;;26.70;41.30;;;;;;5003340;28;20113;-83
2022/05/09 11:20:24;;;;;;;1999.90;999.90;;;26.70;41.40;;;;;;5008715;28;20025;-82
2022/05/09 11:22:56;;;;;;;1999.90;999.90;;;26.70;41.50;;;;;;5008524;28;20038;-88
2022/05/09 11:25:28;;;;;;;1999.90;999.90;;;26.70;41.30;;;;;;5003123;28;20041;-86
2022/05/09 11:28:07;;;;;;;1999.90;999.90;;;26.50;41.30;;;;;;5008179;28;20030;-86
2022/05/09 11:30:41;;;;;;;1999.90;999.90;;;26.70;40.40;;;;;;5002749;28;20499;-84
2022/05/09 11:33:19;;;;;;;1999.90;999.90;;;26.90;40.80;;;;;;5027186;28;20038;-85
2022/05/09 11:35:46;;;;;;;1999.90;999.90;;;27.30;40.40;;;;;;5007649;28;20037;-84
2022/05/09 11:38:42;;;;;;;1999.90;999.90;;;27.70;40.30;;;;;;4992295;28;20057;-84
2022/05/09 11:41:21;;;;;;;1999.90;999.90;;;28.00;37.70;;;;;;5024954;28;20045;-84
2022/05/09 11:44:32;;;;;;;1999.90;999.90;;;27.50;37.90;;;;;;4990675;28;20416;-82
2022/05/09 11:47:13;;;;;;;1999.90;999.90;;;27.10;38.20;;;;;;5004707;28;20034;-82
2022/05/09 11:49:58;;;;;;;1999.90;999.90;;;27.30;39.70;;;;;;4994331;28;20042;-82
2022/05/09 11:52:32;;;;;;;1999.90;999.90;;;27.30;38.30;;;;;;5008540;28;20477;-82
2022/05/09 11:55:20;;;;;;;1999.90;999.90;;;27.20;39.00;;;;;;5036562;28;20464;-82
2022/05/09 11:57:49;;;;;;;1999.90;999.90;;;27.50;37.80;;;;;;5005990;28;20033;-82
2022/05/09 12:00:30;;;;;;;1999.90;999.90;;;27.70;38.70;;;;;;5010097;28;20030;-83
2022/05/09 12:02:58;;;;;;;1999.90;999.90;;;27.80;37.00;;;;;;5009941;28;20041;-82
2022/05/09 12:05:31;;;;;;;1999.90;999.90;;;27.60;38.00;;;;;;4991415;28;20038;-83
2022/05/09 12:08:06;;;;;;;1999.90;999.90;;;27.60;36.80;;;;;;5009319;28;20037;-83
2022/05/09 12:10:35;;;;;;;1999.90;999.90;;;27.70;37.80;;;;;;5004263;28;20061;-83
2022/05/09 12:13:04;;;;;;;1999.90;999.90;;;27.70;37.10;;;;;;5009749;28;20041;-83
2022/05/09 12:15:30;;;;;;;1999.90;999.90;;;27.90;37.10;;;;;;5025062;28;20041;-82
2022/05/09 12:18:00;;;;;;;1999.90;999.90;;;27.90;36.60;;;;;;5003876;28;20042;-83
2022/05/09 12:20:27;;;;;;;1999.90;999.90;;;28.00;37.70;;;;;;5007524;28;20034;-82
2022/05/09 12:22:54;;;;;;;1015.15;514.20;;;28.10;36.20;;;;;;5006248;28;20060;-82
2022/05/09 12:25:40;;;;;;;1999.90;999.90;;;27.90;35.50;;;;;;5007008;28;20040;-82
2022/05/09 12:28:25;;;;;;;1999.90;999.90;;;27.70;37.10;;;;;;4995646;28;20399;-83
2022/05/09 12:31:01;;;;;;;1999.90;999.90;;;27.30;36.00;;;;;;5008747;28;20103;-82
2022/05/09 12:33:47;;;;;;;1999.90;999.90;;;26.90;36.70;;;;;;5002185;28;20050;-81
2022/05/09 12:36:18;;;;;;;1999.90;999.90;;;27.00;38.30;;;;;;4992189;28;20045;-81
2022/05/09 12:38:46;;;;;;;1999.90;999.90;;;27.30;38.10;;;;;;5010507;28;20021;-82
2022/05/09 12:41:13;;;;;;;27.33;25.63;;;27.60;36.70;;;;;;5011462;28;20037;-82
2022/05/09 12:43:44;;;;;;;1013.85;512.85;;;27.80;35.60;;;;;;5012276;28;20026;-82
2022/05/09 12:46:20;;;;;;;1999.90;999.90;;;27.50;35.40;;;;;;5010367;28;20034;-83
2022/05/09 12:48:46;;;;;;;26.23;24.65;;;27.60;35.70;;;;;;5026210;28;20021;-83
2022/05/09 12:51:12;;;;;;;1999.90;999.90;;;27.80;35.20;;;;;;5012843;28;20053;-83
2022/05/09 12:53:38;;;;;;;26.55;24.95;;;27.70;35.50;;;;;;4994898;28;20046;-83
2022/05/09 12:56:24;;;;;;;33.22;31.33;;;27.80;35.90;;;;;;5027965;28;20026;-83
2022/05/09 12:59:03;;;;;;;31.02;29.02;;;28.10;34.40;;;;;;4994697;28;20503;-83
2022/05/09 13:01:30;;;;;;;27.05;25.42;;;27.80;34.40;;;;;;5032035;28;20037;-83
2022/05/09 13:03:57;;;;;;;35.50;33.45;;;28.00;35.70;;;;;;5043180;28;20495;-83
2022/05/09 13:06:25;;;;;;;29.55;27.75;;;28.30;34.10;;;;;;5012924;28;20383;-82
2022/05/09 13:08:51;;;;;;;26.80;25.10;;;28.20;33.50;;;;;;5011515;28;20034;-82
2022/05/09 13:11:22;;;;;;;39.33;37.05;;;27.90;34.40;;;;;;5009369;28;20492;-82
2022/05/09 13:14:07;;;;;;;25.88;24.17;;;27.70;33.70;;;;;;5011241;28;20034;-82
2022/05/09 13:16:38;;;;;;;24.95;23.35;;;27.20;34.60;;;;;;4993491;28;20026;-81
2022/05/09 13:19:05;;;;;;;25.27;23.83;;;27.20;34.40;;;;;;4994797;28;20438;-81
2022/05/09 13:21:37;;;;;;;25.83;24.08;;;27.30;33.70;;;;;;5028948;28;20364;-82
2022/05/09 13:24:04;;;;;;;24.60;23.17;;;27.30;33.70;;;;;;5011740;28;20042;-81
2022/05/09 13:26:31;;;;;;;1999.90;999.90;;;27.30;34.50;;;;;;5009009;28;20022;-82
2022/05/09 13:28:58;;;;;;;26.25;24.30;;;27.50;35.80;;;;;;5007907;28;20398;-78
2022/05/09 13:31:36;;;;;;;26.30;24.38;;;27.80;35.50;;;;;;5006742;28;20395;-80
2022/05/09 13:34:03;;;;;;;28.88;27.05;;;28.20;35.00;;;;;;5004131;28;20041;-81
2022/05/09 13:36:37;;;;;;;30.40;28.52;;;28.40;34.40;;;;;;5012270;28;20037;-80
2022/05/09 13:39:03;;;;;;;39.33;36.97;;;28.70;33.80;;;;;;4995460;28;20031;-81
2022/05/09 13:41:30;;;;;;;36.15;33.95;;;28.70;33.80;;;;;;5043255;28;20030;-81
2022/05/09 13:43:57;;;;;;;33.22;31.20;;;28.90;33.40;;;;;;5009607;28;20037;-81
2022/05/09 13:46:26;;;;;;;29.30;27.58;;;29.00;33.70;;;;;;4993667;28;20034;-81
2022/05/09 13:48:54;;;;;;;47.00;44.15;;;29.20;33.80;;;;;;5010178;28;20064;-78
2022/05/09 13:51:27;;;;;;;40.92;38.33;;;29.40;33.60;;;;;;4992884;28;20046;-79
2022/05/09 13:53:53;;;;;;;34.92;32.97;;;29.60;33.10;;;;;;4991406;28;20510;-78
2022/05/09 13:56:23;;;;;;;33.15;31.25;;;29.70;32.40;;;;;;5011008;28;20083;-78
2022/05/09 13:58:49;;;;;;;37.88;35.72;;;29.70;32.70;;;;;;4994066;28;20041;-78
2022/05/09 14:01:15;;;;;;;51.03;47.95;;;29.70;30.70;;;;;;4991360;28;20034;-80
2022/05/09 14:03:48;;;;;;;43.47;40.65;;;29.40;31.20;;;;;;4976250;28;20049;-83
2022/05/09 14:06:23;;;;;;;31.17;29.33;;;29.30;31.40;;;;;;5010153;28;20053;-80
2022/05/09 14:08:51;;;;;;;35.10;32.92;;;29.20;32.10;;;;;;5007167;28;20034;-79
2022/05/09 14:11:30;;;;;;;29.02;27.42;;;29.30;32.10;;;;;;5017034;28;20360;-84
2022/05/09 14:13:58;;;;;;;34.38;32.40;;;29.40;34.00;;;;;;5004960;28;20491;-81
2022/05/09 14:16:32;;;;;;;29.98;28.27;;;29.40;31.00;;;;;;4992472;28;20394;-80